Time;durP1;ratioP1;P1;durP2;ratioP2;P2;SDS_P1;SDS_P2;PMS_P1;PMS_P2;Temp;Humidity;BMP_temperature;BMP_pressure;BME280_temperature;BME280_humidity;BME280_pressure;Samples;Min_cycle;Max_cycle;Signal;HPM_P1;HPM_P2
2022/06/30 00:00:00;;;;;;;4.18;2.28;;;21.30;99.90;;;;;;7345923;19;109417;-83
2022/06/30 00:02:30;;;;;;;7.43;2.40;;;21.30;99.90;;;;;;7344153;19;108523;-83
2022/06/30 00:04:57;;;;;;;3.83;1.90;;;21.20;99.90;;;;;;7346774;19;107883;-83
2022/06/30 00:07:24;;;;;;;4.05;2.20;;;21.10;99.90;;;;;;7345980;19;109561;-83
2022/06/30 00:09:52;;;;;;;3.33;2.10;;;21.00;99.90;;;;;;7346673;19;108808;-83
2022/06/30 00:12:19;;;;;;;4.22;2.05;;;21.00;99.90;;;;;;7341782;19;108281;-83
2022/06/30 00:14:46;;;;;;;6.15;2.13;;;21.00;99.90;;;;;;7346849;19;108284;-83
2022/06/30 00:17:13;;;;;;;9.63;2.22;;;21.00;99.90;;;;;;7343391;19;109210;-83
2022/06/30 00:19:41;;;;;;;5.72;2.00;;;20.90;99.90;;;;;;7344929;19;109001;-82
2022/06/30 00:22:10;;;;;;;7.90;2.20;;;20.90;99.90;;;;;;7343121;19;108940;-83
2022/06/30 00:24:37;;;;;;;6.50;2.00;;;20.90;99.90;;;;;;7343251;19;110902;-83
2022/06/30 00:27:06;;;;;;;3.47;2.10;;;20.90;99.90;;;;;;7342444;19;108542;-83
2022/06/30 00:29:33;;;;;;;4.43;2.00;;;20.90;99.90;;;;;;7342510;19;109071;-83
2022/06/30 00:32:00;;;;;;;6.90;2.55;;;20.80;99.90;;;;;;7343251;19;107963;-83
2022/06/30 00:34:27;;;;;;;16.20;2.75;;;20.80;99.90;;;;;;7343738;19;107782;-82
2022/06/30 00:36:55;;;;;;;4.70;2.40;;;20.70;99.90;;;;;;7342289;19;108491;-83
2022/06/30 00:39:22;;;;;;;4.70;2.42;;;20.70;99.90;;;;;;7348280;19;107913;-82
2022/06/30 00:41:50;;;;;;;8.18;2.38;;;20.70;99.90;;;;;;7344257;19;107866;-82
2022/06/30 00:44:17;;;;;;;15.80;2.90;;;20.70;99.90;;;;;;7344034;19;108233;-83
2022/06/30 00:46:44;;;;;;;4.75;2.05;;;20.70;99.90;;;;;;7344186;19;107900;-84
2022/06/30 00:49:12;;;;;;;14.70;2.83;;;20.70;99.90;;;;;;7342527;19;111307;-83
2022/06/30 00:51:39;;;;;;;11.68;3.25;;;20.60;99.90;;;;;;7340297;19;107587;-83
2022/06/30 00:54:06;;;;;;;6.55;3.28;;;20.60;99.90;;;;;;7340149;19;107262;-83
2022/06/30 00:56:34;;;;;;;4.32;3.17;;;20.60;99.90;;;;;;7341401;19;109366;-82
2022/06/30 00:59:04;;;;;;;6.90;3.53;;;20.50;99.90;;;;;;7342297;19;108190;-83
2022/06/30 01:01:32;;;;;;;5.50;3.47;;;20.50;99.90;;;;;;7348024;19;108122;-82
2022/06/30 01:04:00;;;;;;;7.93;3.53;;;20.50;99.90;;;;;;7341543;19;107319;-82
2022/06/30 01:06:28;;;;;;;7.35;3.58;;;20.50;99.90;;;;;;7341540;19;108266;-84
2022/06/30 01:08:56;;;;;;;7.47;4.10;;;20.40;99.90;;;;;;7341810;19;109330;-82
2022/06/30 01:14:29;;;;;;;7.03;5.18;;;20.40;99.90;;;;;;7337143;19;107981;-83
2022/06/30 01:16:56;;;;;;;11.77;6.00;;;20.30;99.90;;;;;;7337887;19;107917;-83
2022/06/30 01:19:23;;;;;;;10.05;6.15;;;20.30;99.90;;;;;;7337676;19;107927;-83
2022/06/30 01:22:03;;;;;;;8.38;6.75;;;20.30;99.90;;;;;;7338217;19;108186;-83
2022/06/30 01:24:30;;;;;;;9.90;7.50;;;20.20;99.90;;;;;;7344308;19;108906;-82
2022/06/30 01:26:57;;;;;;;11.57;8.27;;;20.20;99.90;;;;;;7338980;19;108515;-83
2022/06/30 01:29:25;;;;;;;11.93;8.13;;;20.20;99.90;;;;;;7337961;19;108234;-83
2022/06/30 01:31:52;;;;;;;10.30;8.20;;;20.10;99.90;;;;;;7340419;19;107712;-83
2022/06/30 01:34:19;;;;;;;11.75;8.00;;;20.10;99.90;;;;;;7334644;19;107995;-83
2022/06/30 01:36:46;;;;;;;13.63;9.23;;;20.10;99.90;;;;;;7339582;19;109315;-83
2022/06/30 01:39:13;;;;;;;20.25;8.60;;;20.10;99.90;;;;;;7340000;19;107880;-83
2022/06/30 01:41:40;;;;;;;14.80;8.88;;;20.10;99.90;;;;;;7337872;19;107520;-82
2022/06/30 01:44:08;;;;;;;14.43;8.93;;;20.10;99.90;;;;;;7338698;19;109323;-83
2022/06/30 01:46:35;;;;;;;12.95;8.65;;;20.10;99.90;;;;;;7349591;19;108067;-83
2022/06/30 01:49:02;;;;;;;18.70;8.10;;;20.10;99.90;;;;;;7343352;19;108472;-85
2022/06/30 01:51:29;;;;;;;13.65;8.15;;;20.10;99.90;;;;;;7342445;19;108023;-83
2022/06/30 01:53:56;;;;;;;14.85;8.07;;;20.10;99.90;;;;;;7336751;19;108974;-82
2022/06/30 01:56:24;;;;;;;12.95;8.07;;;20.00;99.90;;;;;;7343064;19;108820;-83
2022/06/30 01:58:53;;;;;;;13.80;8.27;;;19.90;99.90;;;;;;7344178;19;107998;-86
2022/06/30 02:01:20;;;;;;;15.63;7.70;;;19.80;99.90;;;;;;7340202;19;108295;-83
2022/06/30 02:03:48;;;;;;;10.18;7.93;;;19.80;99.90;;;;;;7338024;19;109053;-83
2022/06/30 02:06:15;;;;;;;13.32;7.75;;;19.70;99.90;;;;;;7341892;19;107378;-83
2022/06/30 02:08:42;;;;;;;13.68;8.25;;;19.70;99.90;;;;;;7348196;19;108372;-83
2022/06/30 02:11:09;;;;;;;15.38;8.07;;;19.60;99.90;;;;;;7341285;19;107250;-83
2022/06/30 02:13:36;;;;;;;11.45;8.15;;;19.60;99.90;;;;;;7340489;19;107633;-82
2022/06/30 02:16:04;;;;;;;25.00;7.78;;;19.60;99.90;;;;;;7339023;19;108559;-83
2022/06/30 02:18:31;;;;;;;13.27;8.10;;;19.60;99.90;;;;;;7341860;19;110319;-83
2022/06/30 02:20:58;;;;;;;10.52;7.78;;;19.60;99.90;;;;;;7338799;19;108230;-83
2022/06/30 02:23:25;;;;;;;13.07;8.73;;;19.60;99.90;;;;;;7338974;19;108076;-83
2022/06/30 02:25:52;;;;;;;14.27;7.85;;;19.60;99.90;;;;;;7339431;19;108189;-84
2022/06/30 02:28:19;;;;;;;14.93;9.88;;;19.40;99.90;;;;;;7341385;19;110075;-83
2022/06/30 02:30:46;;;;;;;10.90;8.50;;;19.20;99.90;;;;;;7345843;19;108024;-84
2022/06/30 02:33:15;;;;;;;12.73;9.45;;;19.20;99.90;;;;;;7337274;19;107369;-83
2022/06/30 02:35:42;;;;;;;12.25;9.80;;;19.10;99.90;;;;;;7339825;19;109033;-84
2022/06/30 02:38:10;;;;;;;18.20;10.32;;;19.00;99.90;;;;;;7338720;19;109047;-83
2022/06/30 02:40:37;;;;;;;14.75;9.50;;;18.80;99.90;;;;;;7336451;19;111776;-84
2022/06/30 02:43:04;;;;;;;10.80;9.10;;;18.70;99.90;;;;;;7339605;19;109133;-83
2022/06/30 02:45:32;;;;;;;11.40;9.13;;;18.80;99.90;;;;;;7340278;19;108160;-83
2022/06/30 02:47:59;;;;;;;12.00;8.75;;;18.80;99.90;;;;;;7339686;19;108909;-83
2022/06/30 02:50:26;;;;;;;12.88;8.68;;;18.90;99.90;;;;;;7343375;19;109272;-83
2022/06/30 02:52:53;;;;;;;10.68;8.82;;;18.90;99.90;;;;;;7338862;19;108250;-83
2022/06/30 02:55:21;;;;;;;15.25;9.73;;;19.00;99.90;;;;;;7338156;19;107941;-83
2022/06/30 02:57:48;;;;;;;14.38;9.48;;;19.00;99.90;;;;;;7338960;19;112052;-83
2022/06/30 03:00:15;;;;;;;18.45;11.30;;;19.00;99.90;;;;;;7337590;19;108480;-83
2022/06/30 03:02:43;;;;;;;11.50;9.82;;;19.00;99.90;;;;;;7330795;19;110303;-82
2022/06/30 03:05:10;;;;;;;13.75;9.85;;;18.90;99.90;;;;;;7333933;19;111869;-81
2022/06/30 03:07:38;;;;;;;14.95;10.27;;;18.90;99.90;;;;;;7337585;19;108344;-80
2022/06/30 03:10:05;;;;;;;14.68;10.65;;;18.80;99.90;;;;;;7332601;19;110081;-81
2022/06/30 03:12:32;;;;;;;13.23;9.88;;;18.70;99.90;;;;;;7339628;19;111760;-80
2022/06/30 03:14:59;;;;;;;14.63;10.00;;;18.60;99.90;;;;;;7336528;19;108945;-81
2022/06/30 03:17:26;;;;;;;18.25;10.07;;;18.50;99.90;;;;;;7332845;19;110459;-82
2022/06/30 03:19:53;;;;;;;21.27;10.75;;;18.40;99.90;;;;;;7335567;19;110759;-82
2022/06/30 03:22:21;;;;;;;16.10;10.80;;;18.30;99.90;;;;;;7335963;19;112113;-82
2022/06/30 03:24:47;;;;;;;14.40;9.32;;;18.30;99.90;;;;;;7335371;19;110656;-81
2022/06/30 03:27:15;;;;;;;19.73;11.38;;;18.40;99.90;;;;;;7338484;19;108209;-82
2022/06/30 03:29:42;;;;;;;12.00;10.50;;;18.40;99.90;;;;;;7335925;19;110291;-81
2022/06/30 03:32:09;;;;;;;15.85;11.27;;;18.40;99.90;;;;;;7335984;19;111539;-82
2022/06/30 03:34:36;;;;;;;11.07;9.18;;;18.40;99.90;;;;;;7337113;19;111265;-81
2022/06/30 03:37:04;;;;;;;12.13;8.70;;;18.40;99.90;;;;;;7337755;19;112098;-82
2022/06/30 03:39:31;;;;;;;8.45;7.60;;;18.40;99.90;;;;;;7339922;19;108236;-82
2022/06/30 03:41:58;;;;;;;10.90;8.20;;;18.40;99.90;;;;;;7336621;19;108972;-81
2022/06/30 03:44:25;;;;;;;10.98;8.00;;;18.40;99.90;;;;;;7337833;19;110380;-81
2022/06/30 03:46:52;;;;;;;14.02;8.75;;;18.40;99.90;;;;;;7338806;19;108247;-81
2022/06/30 03:49:23;;;;;;;12.43;8.10;;;18.40;99.90;;;;;;7338712;19;108946;-82
2022/06/30 03:51:50;;;;;;;12.27;7.25;;;18.40;99.90;;;;;;7339018;19;108242;-81
2022/06/30 03:54:19;;;;;;;12.80;8.30;;;18.40;99.90;;;;;;7336361;19;111108;-81
2022/06/30 03:56:47;;;;;;;13.85;7.70;;;18.50;99.90;;;;;;7343665;19;109160;-82
2022/06/30 03:59:15;;;;;;;10.82;7.20;;;18.50;99.90;;;;;;7337386;19;108258;-81
2022/06/30 04:01:42;;;;;;;10.38;6.82;;;18.50;99.90;;;;;;7337339;19;108795;-81
2022/06/30 04:04:09;;;;;;;11.00;6.78;;;18.50;99.90;;;;;;7335813;19;107355;-82
2022/06/30 04:06:36;;;;;;;10.23;6.80;;;18.50;99.90;;;;;;7338542;19;108688;-81
2022/06/30 04:09:03;;;;;;;11.00;6.45;;;18.50;99.90;;;;;;7337061;19;108063;-81
2022/06/30 04:11:30;;;;;;;11.10;6.32;;;18.50;99.90;;;;;;7339273;19;108138;-81
2022/06/30 04:13:57;;;;;;;12.60;6.32;;;18.60;99.90;;;;;;7336953;19;111453;-81
2022/06/30 04:16:24;;;;;;;10.35;6.15;;;18.60;99.90;;;;;;7336635;19;111621;-82
2022/06/30 04:18:54;;;;;;;10.63;5.57;;;18.60;99.90;;;;;;7342479;19;107421;-82
2022/06/30 04:21:21;;;;;;;12.20;5.53;;;18.60;99.90;;;;;;7337330;19;109870;-82
2022/06/30 04:23:48;;;;;;;11.25;5.65;;;18.70;99.90;;;;;;7336461;19;108318;-81
2022/06/30 04:26:16;;;;;;;11.70;5.53;;;18.70;99.90;;;;;;7338552;19;108524;-81
2022/06/30 04:28:43;;;;;;;10.75;5.45;;;18.70;99.90;;;;;;7334779;19;108269;-82
2022/06/30 04:33:55;;;;;;;9.82;5.35;;;18.80;99.90;;;;;;7335716;19;107483;-81
2022/06/30 04:36:22;;;;;;;15.98;5.57;;;18.80;99.90;;;;;;7336332;19;109228;-81
2022/06/30 04:38:49;;;;;;;10.48;5.22;;;18.80;99.90;;;;;;7341199;19;107974;-82
2022/06/30 04:41:25;;;;;;;13.48;5.10;;;18.90;99.90;;;;;;7349484;19;108223;-82
2022/06/30 04:43:57;;;;;;;10.35;4.93;;;18.90;99.90;;;;;;7341156;19;108281;-83
2022/06/30 04:46:25;;;;;;;10.13;4.50;;;18.90;99.90;;;;;;7342281;19;108459;-82
2022/06/30 04:48:53;;;;;;;13.35;5.35;;;19.00;99.90;;;;;;7342573;19;108166;-81
2022/06/30 04:51:21;;;;;;;11.38;5.32;;;19.00;99.90;;;;;;7344447;19;108086;-82
2022/06/30 04:53:49;;;;;;;11.90;4.78;;;19.00;99.90;;;;;;7341965;19;108309;-81
2022/06/30 04:56:17;;;;;;;15.38;5.22;;;19.10;99.90;;;;;;7342355;19;108847;-82
2022/06/30 04:58:45;;;;;;;8.98;4.25;;;19.10;99.90;;;;;;7344875;19;108327;-82
2022/06/30 05:01:12;;;;;;;9.50;4.38;;;19.10;99.90;;;;;;7347799;19;107841;-82
2022/06/30 05:03:39;;;;;;;13.88;4.60;;;19.10;99.90;;;;;;7343820;19;111549;-81
2022/06/30 05:06:07;;;;;;;12.75;5.03;;;19.10;99.90;;;;;;7343995;19;108113;-81
2022/06/30 05:08:34;;;;;;;9.85;4.55;;;19.10;99.90;;;;;;7343042;19;112230;-82
2022/06/30 05:11:01;;;;;;;13.68;4.28;;;19.20;99.90;;;;;;7343844;19;106978;-81
2022/06/30 05:13:28;;;;;;;9.95;3.65;;;19.20;99.90;;;;;;7340939;19;107598;-81
2022/06/30 05:15:55;;;;;;;10.60;3.53;;;19.20;99.90;;;;;;7341055;19;108944;-85
2022/06/30 05:18:26;;;;;;;9.45;3.78;;;19.20;99.90;;;;;;7342414;19;108323;-85
2022/06/30 05:20:54;;;;;;;10.88;3.70;;;19.30;99.90;;;;;;7342075;19;108172;-84
2022/06/30 05:23:21;;;;;;;14.73;4.25;;;19.30;99.90;;;;;;7347178;19;107862;-85
2022/06/30 05:28:34;;;;;;;14.73;3.55;;;19.30;99.90;;;;;;7344662;19;109624;-85
2022/06/30 05:31:01;;;;;;;14.73;4.10;;;19.40;99.90;;;;;;7342274;19;111449;-84
2022/06/30 05:33:28;;;;;;;11.38;3.70;;;19.40;99.90;;;;;;7341207;19;108165;-85
2022/06/30 05:35:55;;;;;;;16.30;3.33;;;19.50;99.90;;;;;;7338171;19;109112;-85
2022/06/30 05:38:22;;;;;;;8.20;3.33;;;19.60;99.90;;;;;;7341489;19;107940;-85
2022/06/30 05:40:49;;;;;;;14.00;3.72;;;19.60;99.90;;;;;;7342291;19;107628;-85
2022/06/30 05:43:17;;;;;;;11.93;3.50;;;19.70;99.90;;;;;;7339613;19;108120;-84
2022/06/30 05:45:51;;;;;;;8.82;3.28;;;19.70;99.90;;;;;;7349601;19;109364;-85
2022/06/30 05:48:18;;;;;;;7.15;3.17;;;19.80;99.90;;;;;;7342732;19;107970;-84
2022/06/30 05:50:47;;;;;;;10.98;3.05;;;19.90;99.90;;;;;;7340063;19;107939;-84
2022/06/30 05:53:15;;;;;;;14.10;3.30;;;19.90;99.90;;;;;;7337957;19;108723;-85
2022/06/30 05:55:42;;;;;;;13.77;3.45;;;20.00;99.90;;;;;;7338015;19;108985;-84
2022/06/30 05:58:12;;;;;;;9.85;3.40;;;20.10;99.90;;;;;;7342700;19;107948;-84
2022/06/30 06:00:39;;;;;;;9.57;3.13;;;20.20;99.90;;;;;;7342416;19;108337;-84
2022/06/30 06:03:06;;;;;;;11.80;3.00;;;20.20;99.90;;;;;;7341181;19;108778;-84
2022/06/30 06:05:33;;;;;;;9.18;3.00;;;20.20;99.90;;;;;;7343658;19;108487;-82
2022/06/30 06:08:05;;;;;;;11.05;3.28;;;20.30;99.90;;;;;;7348690;19;107863;-82
2022/06/30 06:10:32;;;;;;;9.70;2.88;;;20.40;99.90;;;;;;7341271;19;108847;-82
2022/06/30 06:12:59;;;;;;;8.60;2.58;;;20.50;99.90;;;;;;7341026;19;108072;-82
2022/06/30 06:15:26;;;;;;;9.23;3.10;;;20.50;99.90;;;;;;7338475;19;109453;-82
2022/06/30 06:17:53;;;;;;;8.90;3.10;;;20.60;99.90;;;;;;7338605;19;111271;-82
2022/06/30 06:20:20;;;;;;;8.27;3.15;;;20.60;99.90;;;;;;7340811;19;108056;-83
2022/06/30 06:22:47;;;;;;;9.10;3.17;;;20.70;99.90;;;;;;7338486;19;109215;-83
2022/06/30 06:25:15;;;;;;;12.30;3.10;;;20.80;99.90;;;;;;7341397;19;107542;-82
2022/06/30 06:29:05;;;;;;;10.02;2.95;;;20.90;99.90;;;;;;7341779;19;109188;-82
2022/06/30 06:30:30;;;;;;;9.35;2.65;;;20.90;99.90;;;;;;7346707;19;107693;-83
2022/06/30 06:32:57;;;;;;;11.57;2.90;;;20.90;99.90;;;;;;7340958;19;110351;-83
2022/06/30 06:35:24;;;;;;;9.27;2.72;;;20.90;99.90;;;;;;7334929;19;109743;-83
2022/06/30 06:37:51;;;;;;;10.68;2.60;;;21.10;99.90;;;;;;7339679;19;107619;-83
2022/06/30 06:40:19;;;;;;;6.22;2.20;;;21.20;99.90;;;;;;7341386;19;108293;-83
2022/06/30 06:42:46;;;;;;;5.78;2.08;;;21.30;99.90;;;;;;7340511;19;110843;-84
2022/06/30 06:45:13;;;;;;;5.78;1.48;;;21.40;99.90;;;;;;7341549;19;111082;-83
2022/06/30 06:47:40;;;;;;;9.15;1.88;;;21.50;99.90;;;;;;7339175;19;107854;-83
2022/06/30 06:50:08;;;;;;;3.92;1.80;;;21.60;99.90;;;;;;7340020;19;108982;-83
2022/06/30 06:52:35;;;;;;;7.53;2.05;;;21.70;99.90;;;;;;7343430;19;107007;-83
2022/06/30 06:55:03;;;;;;;7.22;1.85;;;21.60;99.90;;;;;;7338216;19;108990;-83
2022/06/30 06:57:39;;;;;;;8.43;2.00;;;21.70;99.90;;;;;;7339993;19;108056;-84
2022/06/30 07:00:08;;;;;;;6.03;2.00;;;21.70;99.90;;;;;;7340208;19;109619;-83
2022/06/30 07:02:35;;;;;;;7.63;2.55;;;21.80;99.90;;;;;;7339213;19;108987;-83
2022/06/30 07:05:03;;;;;;;5.80;2.17;;;21.80;99.90;;;;;;7339893;19;107910;-83
2022/06/30 07:07:33;;;;;;;5.97;1.77;;;21.90;99.90;;;;;;7340914;19;110907;-84
2022/06/30 07:10:00;;;;;;;6.28;2.00;;;22.00;99.90;;;;;;7341042;19;108898;-84
2022/06/30 07:12:28;;;;;;;7.20;2.00;;;22.10;99.90;;;;;;7345741;19;110612;-84
2022/06/30 07:14:55;;;;;;;6.45;1.52;;;22.10;99.90;;;;;;7338760;19;109105;-84
2022/06/30 07:17:21;;;;;;;4.80;1.65;;;22.10;99.90;;;;;;7339734;19;108442;-83
2022/06/30 07:19:49;;;;;;;9.57;1.70;;;22.10;99.90;;;;;;7339630;19;108198;-84
2022/06/30 07:22:17;;;;;;;5.30;1.90;;;22.20;99.90;;;;;;7340300;19;107962;-84
2022/06/30 07:24:44;;;;;;;7.38;2.00;;;22.20;99.90;;;;;;7340614;19;107638;-84
2022/06/30 07:27:12;;;;;;;5.38;1.75;;;22.20;99.90;;;;;;7339769;19;111713;-83
2022/06/30 07:29:39;;;;;;;5.85;2.03;;;22.30;99.90;;;;;;7340769;19;109485;-83
2022/06/30 07:32:07;;;;;;;9.80;2.20;;;22.40;99.90;;;;;;7338072;19;108491;-84
2022/06/30 07:34:34;;;;;;;6.80;1.73;;;22.50;99.90;;;;;;7343820;19;108723;-84
2022/06/30 07:37:01;;;;;;;7.63;2.38;;;22.50;99.90;;;;;;7339857;19;107385;-83
2022/06/30 07:39:28;;;;;;;7.75;2.28;;;22.60;99.90;;;;;;7338478;19;108197;-85
2022/06/30 07:41:55;;;;;;;8.00;1.80;;;22.50;99.90;;;;;;7339803;19;108880;-84
2022/06/30 07:44:22;;;;;;;8.50;2.35;;;22.60;99.90;;;;;;7339413;19;108231;-84
2022/06/30 07:46:50;;;;;;;11.07;3.13;;;22.70;99.90;;;;;;7340300;19;108223;-83
2022/06/30 07:49:17;;;;;;;6.22;2.10;;;22.80;99.90;;;;;;7339207;19;109522;-83
2022/06/30 07:51:44;;;;;;;6.60;2.10;;;22.80;99.90;;;;;;7339211;19;108315;-83
2022/06/30 07:54:11;;;;;;;8.30;2.58;;;22.80;99.90;;;;;;7335869;19;107948;-83
2022/06/30 07:56:39;;;;;;;6.07;2.22;;;22.90;99.90;;;;;;7343035;19;108613;-83
2022/06/30 07:59:06;;;;;;;8.15;2.38;;;23.00;99.90;;;;;;7337896;19;108569;-84
2022/06/30 08:01:33;;;;;;;7.93;2.40;;;23.10;99.90;;;;;;7339387;19;108833;-84
2022/06/30 08:04:00;;;;;;;5.70;1.83;;;23.20;99.90;;;;;;7339675;19;108302;-83
2022/06/30 08:06:27;;;;;;;6.03;1.80;;;23.20;99.90;;;;;;7337864;19;107492;-84
2022/06/30 08:08:54;;;;;;;6.80;1.60;;;23.30;99.90;;;;;;7337100;19;108946;-84
2022/06/30 08:11:22;;;;;;;6.03;1.67;;;23.40;99.90;;;;;;7339598;19;107280;-83
2022/06/30 08:13:50;;;;;;;18.63;2.67;;;23.40;99.90;;;;;;7342922;19;108693;-84
2022/06/30 08:16:17;;;;;;;10.45;2.35;;;23.50;99.90;;;;;;7345592;19;108942;-83
2022/06/30 08:18:44;;;;;;;6.10;2.15;;;23.50;99.90;;;;;;7350859;19;110816;-83
2022/06/30 08:21:11;;;;;;;5.93;2.10;;;23.50;99.90;;;;;;7346489;19;109385;-84
2022/06/30 08:23:40;;;;;;;16.23;2.53;;;23.50;99.90;;;;;;7346364;19;111014;-84
2022/06/30 08:26:07;;;;;;;8.48;2.28;;;23.60;99.90;;;;;;7344320;19;108231;-83
2022/06/30 08:28:34;;;;;;;6.72;2.20;;;23.70;99.90;;;;;;7345893;19;107877;-84
2022/06/30 08:31:03;;;;;;;14.50;2.72;;;23.80;99.90;;;;;;7344884;19;107877;-84
2022/06/30 08:33:30;;;;;;;8.70;2.50;;;23.90;99.90;;;;;;7346009;19;108368;-84
2022/06/30 08:35:57;;;;;;;14.85;2.70;;;23.90;99.90;;;;;;7343394;19;109259;-83
2022/06/30 08:38:27;;;;;;;7.18;2.67;;;24.00;99.90;;;;;;7345802;19;107184;-84
2022/06/30 08:43:43;;;;;;;6.18;2.42;;;24.00;99.90;;;;;;7344645;19;108306;-83
2022/06/30 08:46:12;;;;;;;5.65;2.30;;;24.10;99.90;;;;;;7343701;19;108664;-84
2022/06/30 08:48:39;;;;;;;19.83;2.85;;;24.10;99.90;;;;;;7341796;19;112213;-83
2022/06/30 08:51:07;;;;;;;8.10;3.05;;;24.20;99.90;;;;;;7345529;19;108994;-84
2022/06/30 08:53:44;;;;;;;4.63;2.10;;;24.30;99.90;;;;;;7341177;19;108569;-84
2022/06/30 08:56:12;;;;;;;;;;;24.30;99.90;;;;;;7343576;19;109036;-83
2022/06/30 08:58:41;;;;;;;6.43;2.38;;;24.30;99.90;;;;;;7347965;19;108026;-83
2022/06/30 09:01:09;;;;;;;5.43;2.25;;;24.30;99.90;;;;;;7349941;19;107711;-84
2022/06/30 09:03:38;;;;;;;5.05;2.25;;;24.50;99.90;;;;;;7342721;19;108490;-84
2022/06/30 09:06:06;;;;;;;6.80;1.98;;;24.60;99.90;;;;;;7342026;19;109853;-84
2022/06/30 09:08:33;;;;;;;4.55;2.20;;;24.60;99.70;;;;;;7344392;19;109000;-83
2022/06/30 09:11:00;;;;;;;4.80;2.58;;;24.60;99.80;;;;;;7343513;19;107983;-83
2022/06/30 09:13:40;;;;;;;4.07;2.17;;;24.60;99.80;;;;;;7343714;19;108411;-84
2022/06/30 09:16:07;;;;;;;4.30;2.03;;;24.60;99.50;;;;;;7344047;19;109198;-84
2022/06/30 09:18:34;;;;;;;4.38;1.92;;;24.60;99.30;;;;;;7343754;19;107976;-84
2022/06/30 09:21:13;;;;;;;7.78;2.55;;;24.60;99.60;;;;;;7341037;19;108092;-83
2022/06/30 09:23:44;;;;;;;7.85;2.33;;;24.80;99.70;;;;;;7347170;19;109985;-84
2022/06/30 09:26:23;;;;;;;8.70;2.75;;;24.80;99.80;;;;;;7343875;19;108361;-83
2022/06/30 09:28:54;;;;;;;6.93;2.50;;;24.90;99.70;;;;;;7344704;19;108404;-84
2022/06/30 09:31:45;;;;;;;6.03;2.40;;;25.00;99.50;;;;;;7343362;19;109117;-84
2022/06/30 09:34:21;;;;;;;6.93;1.60;;;25.10;99.10;;;;;;7341999;19;107411;-84
2022/06/30 09:36:51;;;;;;;6.13;1.98;;;25.10;98.40;;;;;;7340306;19;109033;-84
2022/06/30 09:39:20;;;;;;;5.40;1.92;;;25.10;98.70;;;;;;7342798;19;108130;-84
2022/06/30 09:41:49;;;;;;;4.28;1.77;;;25.20;98.10;;;;;;7342929;19;110594;-83
2022/06/30 09:44:16;;;;;;;5.85;1.75;;;25.10;98.30;;;;;;7340195;19;108980;-84
2022/06/30 09:46:58;;;;;;;3.92;1.60;;;24.90;98.60;;;;;;7348406;19;107885;-84
2022/06/30 09:49:39;;;;;;;7.20;1.50;;;24.90;98.50;;;;;;7340261;19;108998;-84
2022/06/30 09:52:18;;;;;;;3.65;1.45;;;25.00;98.50;;;;;;7341673;19;107813;-84
2022/06/30 09:54:54;;;;;;;4.90;1.50;;;25.20;98.60;;;;;;7341424;19;107605;-88
2022/06/30 09:57:22;;;;;;;3.23;1.20;;;25.30;98.30;;;;;;7339431;19;108208;-90
2022/06/30 10:00:09;;;;;;;3.67;1.70;;;25.30;98.30;;;;;;7342938;19;107073;-88
2022/06/30 10:02:48;;;;;;;4.43;1.37;;;25.30;97.80;;;;;;7342944;19;108281;-89
2022/06/30 10:05:17;;;;;;;3.85;1.30;;;25.20;98.00;;;;;;7340579;19;112605;-87
2022/06/30 10:07:46;;;;;;;2.95;1.58;;;25.20;98.10;;;;;;7339073;19;108199;-90
2022/06/30 10:10:15;;;;;;;3.75;1.48;;;25.10;98.00;;;;;;7346219;19;111719;-90
2022/06/30 10:12:45;;;;;;;4.55;1.95;;;25.10;97.80;;;;;;7341553;19;107025;-90
2022/06/30 10:15:13;;;;;;;4.82;1.80;;;25.10;97.90;;;;;;7339913;19;109143;-89
2022/06/30 10:17:50;;;;;;;5.63;1.50;;;25.00;97.70;;;;;;7339794;19;110254;-89
2022/06/30 10:20:22;;;;;;;5.28;1.77;;;25.00;98.00;;;;;;7341317;19;108478;-88
2022/06/30 10:22:50;;;;;;;5.65;1.73;;;25.00;97.90;;;;;;7342319;19;108877;-90
2022/06/30 10:25:17;;;;;;;4.88;1.60;;;24.90;98.00;;;;;;7342781;19;109335;-89
2022/06/30 10:27:47;;;;;;;5.57;1.70;;;24.90;97.90;;;;;;7343208;19;108212;-89
2022/06/30 10:30:16;;;;;;;2.40;1.20;;;25.00;97.60;;;;;;7341562;19;107014;-89
2022/06/30 10:32:46;;;;;;;4.80;1.70;;;25.00;97.80;;;;;;7346067;19;109371;-90
2022/06/30 10:35:27;;;;;;;6.20;1.83;;;25.00;98.10;;;;;;7341444;19;109232;-90
2022/06/30 10:38:11;;;;;;;3.47;1.67;;;25.00;97.90;;;;;;7339194;19;108224;-90
2022/06/30 10:41:04;;;;;;;5.72;1.50;;;24.90;98.10;;;;;;7336691;19;108032;-84
2022/06/30 10:43:34;;;;;;;5.93;1.73;;;24.90;98.10;;;;;;7339034;19;110703;-85
2022/06/30 10:46:06;;;;;;;5.75;1.60;;;24.80;98.00;;;;;;7336677;19;108846;-85
2022/06/30 10:48:53;;;;;;;5.80;1.40;;;24.80;98.10;;;;;;7340325;19;108359;-85
2022/06/30 10:51:22;;;;;;;4.88;1.23;;;24.80;96.90;;;;;;7339567;19;107431;-85
2022/06/30 10:53:55;;;;;;;3.15;1.48;;;24.70;97.70;;;;;;7336671;19;109223;-85
2022/06/30 10:57:02;;;;;;;3.03;1.30;;;24.70;97.60;;;;;;7345097;19;108230;-85
2022/06/30 10:59:36;;;;;;;2.65;1.05;;;24.60;96.20;;;;;;7338829;19;108651;-85
2022/06/30 11:02:15;;;;;;;3.10;1.00;;;24.50;96.60;;;;;;7338813;19;110193;-85
2022/06/30 11:04:50;;;;;;;4.65;1.10;;;24.30;97.20;;;;;;7339344;19;108167;-86
2022/06/30 11:07:24;;;;;;;2.53;1.08;;;24.40;97.60;;;;;;7338955;19;108570;-85
2022/06/30 11:09:52;;;;;;;3.53;1.25;;;24.40;97.70;;;;;;7338324;19;108070;-85
2022/06/30 11:12:40;;;;;;;7.10;1.60;;;24.40;97.50;;;;;;7338758;19;107969;-85
2022/06/30 11:15:08;;;;;;;2.58;0.90;;;24.50;97.70;;;;;;7337309;19;108960;-85
2022/06/30 11:17:39;;;;;;;4.32;1.20;;;24.50;97.70;;;;;;7342210;19;111441;-85
2022/06/30 11:20:13;;;;;;;2.60;1.30;;;24.50;97.70;;;;;;7339721;19;110069;-84
2022/06/30 11:22:42;;;;;;;4.03;1.15;;;24.50;96.80;;;;;;7338782;19;107936;-85
2022/06/30 11:27:17;;;;;;;2.58;1.10;;;24.40;97.10;;;;;;7335845;19;108141;-84
2022/06/30 11:28:05;;;;;;;4.88;1.23;;;24.30;97.20;;;;;;7339956;19;109160;-84
2022/06/30 11:30:34;;;;;;;5.78;1.52;;;24.30;97.40;;;;;;7340119;19;108282;-84
2022/06/30 11:33:03;;;;;;;3.70;1.30;;;24.20;97.30;;;;;;7337249;19;107634;-84
2022/06/30 11:35:31;;;;;;;5.80;1.10;;;24.10;97.70;;;;;;7338601;19;111156;-84
2022/06/30 11:38:03;;;;;;;3.42;1.10;;;24.20;97.70;;;;;;7336921;19;107161;-84
2022/06/30 11:40:32;;;;;;;2.35;1.05;;;24.30;97.00;;;;;;7343389;19;108166;-85
2022/06/30 11:42:59;;;;;;;3.05;1.23;;;24.20;96.80;;;;;;7339518;19;107156;-85
2022/06/30 11:45:29;;;;;;;2.20;1.00;;;24.20;97.00;;;;;;7336955;19;108235;-83
2022/06/30 11:48:03;;;;;;;1.88;1.00;;;24.20;97.10;;;;;;7343483;19;108413;-84
2022/06/30 11:50:30;;;;;;;3.92;1.17;;;24.30;97.30;;;;;;7343966;19;108164;-84
2022/06/30 11:52:58;;;;;;;2.50;0.90;;;24.40;97.40;;;;;;7343574;19;108752;-84
2022/06/30 11:55:27;;;;;;;2.85;1.20;;;24.40;97.20;;;;;;7344606;19;108969;-84
2022/06/30 11:57:55;;;;;;;4.25;1.15;;;24.30;96.90;;;;;;7341890;19;108191;-84
2022/06/30 12:00:25;;;;;;;7.10;1.70;;;24.30;97.20;;;;;;7345116;19;108439;-83
2022/06/30 12:02:52;;;;;;;4.22;1.17;;;24.50;97.70;;;;;;7350282;19;108292;-84
2022/06/30 12:05:27;;;;;;;4.25;1.27;;;24.60;98.10;;;;;;7344042;19;107965;-84
2022/06/30 12:07:55;;;;;;;5.40;1.23;;;24.70;97.80;;;;;;7346055;19;108954;-84
2022/06/30 12:10:24;;;;;;;3.70;1.63;;;24.80;97.70;;;;;;7344856;19;108203;-85
2022/06/30 12:12:58;;;;;;;2.38;1.42;;;24.90;98.00;;;;;;7344404;19;110592;-85
2022/06/30 12:15:26;;;;;;;8.13;1.40;;;25.00;97.40;;;;;;7345126;19;108934;-84
2022/06/30 12:17:55;;;;;;;2.67;1.05;;;25.00;97.20;;;;;;7343363;19;107761;-85
2022/06/30 12:20:26;;;;;;;4.03;1.25;;;25.00;97.10;;;;;;7343484;19;108528;-84
2022/06/30 12:22:53;;;;;;;3.72;1.15;;;25.00;97.20;;;;;;7345497;19;108851;-84
2022/06/30 12:25:21;;;;;;;2.70;1.13;;;24.90;97.30;;;;;;7348872;19;107778;-84
2022/06/30 12:27:58;;;;;;;2.83;1.20;;;24.80;97.30;;;;;;7343480;19;109643;-84
2022/06/30 12:30:33;;;;;;;3.00;1.15;;;24.80;97.10;;;;;;7342056;19;111327;-85
2022/06/30 12:33:03;;;;;;;3.15;1.45;;;24.70;97.10;;;;;;7343724;19;108683;-85
2022/06/30 12:35:33;;;;;;;3.45;1.30;;;24.70;97.50;;;;;;7343982;19;109645;-85
2022/06/30 12:38:14;;;;;;;5.25;1.40;;;24.70;97.80;;;;;;7343019;19;108950;-85
2022/06/30 12:40:42;;;;;;;3.45;1.25;;;24.70;98.10;;;;;;7341465;19;108697;-84
2022/06/30 12:43:18;;;;;;;1.88;1.20;;;24.80;98.00;;;;;;7342418;19;109409;-84
2022/06/30 12:45:57;;;;;;;11.90;1.45;;;25.00;97.50;;;;;;7343151;19;108188;-85
2022/06/30 12:48:46;;;;;;;1.98;1.08;;;24.90;97.00;;;;;;7343602;19;108783;-87
2022/06/30 12:51:17;;;;;;;17.88;2.47;;;25.00;97.00;;;;;;7341069;19;107625;-86
2022/06/30 12:53:46;;;;;;;19.52;1.40;;;25.10;97.30;;;;;;7341943;19;109110;-88